Time;durP1;ratioP1;P1;durP2;ratioP2;P2;SDS_P1;SDS_P2;PMS_P1;PMS_P2;Temp;Humidity;BMP_temperature;BMP_pressure;BME280_temperature;BME280_humidity;BME280_pressure;Samples;Min_cycle;Max_cycle;Signal;HPM_P1;HPM_P2
2020/10/06 00:02:12;;;;;;;0.3;0.3;;;;;;;;;;;;;
2020/10/06 00:04:37;;;;;;;1.1;0.4;;;;;;;;;;;;;
2020/10/06 00:07:02;;;;;;;0.3;0.1;;;;;;;;;;;;;
2020/10/06 00:09:28;;;;;;;0.2;0.2;;;;;;;;;;;;;
2020/10/06 00:11:53;;;;;;;0.3;0.3;;;;;;;;;;;;;
2020/10/06 00:14:19;;;;;;;0.6;0.4;;;;;;;;;;;;;
2020/10/06 00:16:45;;;;;;;1.6;0.4;;;;;;;;;;;;;
2020/10/06 00:19:12;;;;;;;0.8;0.5;;;;;;;;;;;;;
2020/10/06 00:21:36;;;;;;;0.3;0.3;;;;;;;;;;;;;
2020/10/06 00:24:01;;;;;;;0.4;0.4;;;;;;;;;;;;;
2020/10/06 00:26:27;;;;;;;0.3;0.3;;;;;;;;;;;;;
2020/10/06 00:28:51;;;;;;;0.6;0.4;;;;;;;;;;;;;
2020/10/06 00:31:16;;;;;;;0.3;0.3;;;;;;;;;;;;;
2020/10/06 00:33:42;;;;;;;2.8;0.7;;;;;;;;;;;;;
2020/10/06 00:36:07;;;;;;;0.9;0.6;;;;;;;;;;;;;
2020/10/06 00:38:32;;;;;;;0.7;0.5;;;;;;;;;;;;;
2020/10/06 00:40:57;;;;;;;0.6;0.5;;;;;;;;;;;;;
2020/10/06 00:43:23;;;;;;;0.5;0.5;;;;;;;;;;;;;
2020/10/06 00:45:48;;;;;;;0.9;0.3;;;;;;;;;;;;;
2020/10/06 00:48:15;;;;;;;0.7;0.4;;;;;;;;;;;;;
2020/10/06 00:50:40;;;;;;;0.2;0.2;;;;;;;;;;;;;
2020/10/06 00:53:05;;;;;;;0.8;0.6;;;;;;;;;;;;;
2020/10/06 00:55:30;;;;;;;0.4;0.3;;;;;;;;;;;;;
2020/10/06 00:57:55;;;;;;;0.4;0.4;;;;;;;;;;;;;
2020/10/06 01:00:22;;;;;;;0.2;0.2;;;;;;;;;;;;;
2020/10/06 01:02:47;;;;;;;0.6;0.4;;;;;;;;;;;;;
2020/10/06 01:05:12;;;;;;;0.5;0.4;;;;;;;;;;;;;
2020/10/06 01:07:37;;;;;;;0.5;0.3;;;;;;;;;;;;;
2020/10/06 01:10:02;;;;;;;0.7;0.6;;;;;;;;;;;;;
2020/10/06 01:12:27;;;;;;;1.2;0.7;;;;;;;;;;;;;
2020/10/06 01:14:53;;;;;;;0.4;0.4;;;;;;;;;;;;;
2020/10/06 01:17:18;;;;;;;0.2;0.2;;;;;;;;;;;;;
2020/10/06 01:19:43;;;;;;;1.7;0.6;;;;;;;;;;;;;
2020/10/06 01:22:09;;;;;;;2.3;0.5;;;;;;;;;;;;;
2020/10/06 01:24:33;;;;;;;0.6;0.4;;;;;;;;;;;;;
2020/10/06 01:26:59;;;;;;;0.7;0.5;;;;;;;;;;;;;
2020/10/06 01:29:24;;;;;;;1.1;0.7;;;;;;;;;;;;;
2020/10/06 01:31:49;;;;;;;1.4;0.5;;;;;;;;;;;;;
2020/10/06 01:34:14;;;;;;;0.8;0.5;;;;;;;;;;;;;
2020/10/06 01:36:39;;;;;;;0.4;0.4;;;;;;;;;;;;;
2020/10/06 01:39:04;;;;;;;1.5;0.4;;;;;;;;;;;;;
2020/10/06 01:41:30;;;;;;;2.4;0.7;;;;;;;;;;;;;
2020/10/06 01:43:55;;;;;;;3.3;0.9;;;;;;;;;;;;;
2020/10/06 01:46:20;;;;;;;1;0.6;;;;;;;;;;;;;
2020/10/06 01:48:45;;;;;;;2.8;0.9;;;;;;;;;;;;;
2020/10/06 01:51:10;;;;;;;1;0.6;;;;;;;;;;;;;
2020/10/06 01:53:35;;;;;;;0.5;0.5;;;;;;;;;;;;;
2020/10/06 01:56:00;;;;;;;0.6;0.4;;;;;;;;;;;;;
2020/10/06 01:58:25;;;;;;;1.2;0.5;;;;;;;;;;;;;
2020/10/06 02:00:50;;;;;;;1.7;0.5;;;;;;;;;;;;;
2020/10/06 02:03:15;;;;;;;0.6;0.5;;;;;;;;;;;;;
2020/10/06 02:05:41;;;;;;;0.3;0.3;;;;;;;;;;;;;
2020/10/06 02:08:06;;;;;;;2.8;0.4;;;;;;;;;;;;;
2020/10/06 02:10:32;;;;;;;0.7;0.3;;;;;;;;;;;;;
2020/10/06 02:12:57;;;;;;;0.7;0.5;;;;;;;;;;;;;
2020/10/06 02:15:22;;;;;;;0.4;0.2;;;;;;;;;;;;;
2020/10/06 02:17:47;;;;;;;1;0.3;;;;;;;;;;;;;
2020/10/06 02:20:12;;;;;;;0.9;0.5;;;;;;;;;;;;;
2020/10/06 02:22:37;;;;;;;0.2;0.2;;;;;;;;;;;;;
2020/10/06 02:25:02;;;;;;;0.6;0.4;;;;;;;;;;;;;
2020/10/06 02:27:28;;;;;;;0.6;0.3;;;;;;;;;;;;;
2020/10/06 02:29:53;;;;;;;0.2;0.2;;;;;;;;;;;;;
2020/10/06 02:32:21;;;;;;;0.2;0.2;;;;;;;;;;;;;
2020/10/06 02:34:46;;;;;;;0.1;0.1;;;;;;;;;;;;;
2020/10/06 02:37:11;;;;;;;0.4;0.4;;;;;;;;;;;;;
2020/10/06 02:39:36;;;;;;;0.2;0.2;;;;;;;;;;;;;
2020/10/06 02:42:01;;;;;;;0.7;0.4;;;;;;;;;;;;;
2020/10/06 02:44:26;;;;;;;0.3;0.3;;;;;;;;;;;;;
2020/10/06 02:46:54;;;;;;;0.5;0.4;;;;;;;;;;;;;
2020/10/06 02:49:19;;;;;;;0.5;0.4;;;;;;;;;;;;;
2020/10/06 02:51:44;;;;;;;0.8;0.5;;;;;;;;;;;;;
2020/10/06 02:54:09;;;;;;;0.6;0.5;;;;;;;;;;;;;
2020/10/06 02:56:34;;;;;;;0.7;0.4;;;;;;;;;;;;;
2020/10/06 02:59:00;;;;;;;0.3;0.2;;;;;;;;;;;;;
2020/10/06 03:01:25;;;;;;;0.4;0.3;;;;;;;;;;;;;
2020/10/06 03:03:50;;;;;;;0.5;0.4;;;;;;;;;;;;;
2020/10/06 03:06:15;;;;;;;5.1;0.5;;;;;;;;;;;;;
2020/10/06 03:08:42;;;;;;;0.4;0.4;;;;;;;;;;;;;
2020/10/06 03:11:07;;;;;;;0.4;0.4;;;;;;;;;;;;;
2020/10/06 03:13:34;;;;;;;1.7;0.3;;;;;;;;;;;;;
2020/10/06 03:15:59;;;;;;;0.3;0.3;;;;;;;;;;;;;
2020/10/06 03:18:24;;;;;;;0.5;0.5;;;;;;;;;;;;;
2020/10/06 03:20:49;;;;;;;1.3;0.5;;;;;;;;;;;;;
2020/10/06 03:23:15;;;;;;;1.1;0.4;;;;;;;;;;;;;
2020/10/06 03:25:40;;;;;;;0.7;0.5;;;;;;;;;;;;;
2020/10/06 03:28:06;;;;;;;1.1;0.5;;;;;;;;;;;;;
2020/10/06 03:30:31;;;;;;;4.2;0.7;;;;;;;;;;;;;
2020/10/06 03:32:56;;;;;;;0.4;0.3;;;;;;;;;;;;;
2020/10/06 03:35:21;;;;;;;0.9;0.4;;;;;;;;;;;;;
2020/10/06 03:37:47;;;;;;;0.5;0.4;;;;;;;;;;;;;
2020/10/06 03:40:12;;;;;;;0.5;0.4;;;;;;;;;;;;;
2020/10/06 03:42:37;;;;;;;1;0.3;;;;;;;;;;;;;
2020/10/06 03:45:02;;;;;;;0.7;0.5;;;;;;;;;;;;;
2020/10/06 03:47:27;;;;;;;0.5;0.3;;;;;;;;;;;;;
2020/10/06 03:49:54;;;;;;;1.7;0.4;;;;;;;;;;;;;
2020/10/06 03:52:19;;;;;;;0.4;0.3;;;;;;;;;;;;;
2020/10/06 03:54:45;;;;;;;0.4;0.4;;;;;;;;;;;;;
2020/10/06 03:57:10;;;;;;;0.7;0.4;;;;;;;;;;;;;
2020/10/06 03:59:36;;;;;;;0.7;0.4;;;;;;;;;;;;;
2020/10/06 04:02:30;;;;;;;0.7;0.5;;;;;;;9.9;89.1416;932.4523;;;;
2020/10/06 04:04:55;;;;;;;0.6;0.4;;;;;;;9.92;89.08984;932.4325;;;;
2020/10/06 04:07:22;;;;;;;0.2;0.2;;;;;;;9.9;89.3584;932.3823;;;;
2020/10/06 04:09:47;;;;;;;0.5;0.4;;;;;;;9.99;89.39941;932.4056;;;;
2020/10/06 04:12:14;;;;;;;0.9;0.5;;;;;;;10.1;89.18457;932.3958;;;;
2020/10/06 04:14:39;;;;;;;0.7;0.4;;;;;;;10.2;88.36035;932.427;;;;
2020/10/06 04:17:07;;;;;;;0.5;0.4;;;;;;;10.18;88.3457;932.423;;;;
2020/10/06 04:19:32;;;;;;;0.7;0.5;;;;;;;10.21;88.48828;932.4551;;;;
2020/10/06 04:21:57;;;;;;;0.7;0.5;;;;;;;10.23;88.30957;932.4722;;;;
2020/10/06 04:24:25;;;;;;;1.3;0.4;;;;;;;10.27;88.01172;932.5748;;;;
2020/10/06 04:26:50;;;;;;;0.3;0.3;;;;;;;10.25;87.69824;932.5908;;;;
2020/10/06 04:29:17;;;;;;;0.6;0.4;;;;;;;10.31;87.52734;932.5455;;;;
2020/10/06 04:31:42;;;;;;;0.6;0.3;;;;;;;10.37;87.04883;932.582;;;;
2020/10/06 04:34:09;;;;;;;0.6;0.4;;;;;;;10.4;86.64355;932.5821;;;;
2020/10/06 04:36:33;;;;;;;0.3;0.3;;;;;;;10.42;86.375;932.5824;;;;
2020/10/06 04:38:59;;;;;;;1.2;0.4;;;;;;;10.44;85.97754;932.5435;;;;
2020/10/06 04:41:24;;;;;;;0.2;0.2;;;;;;;10.41;85.78906;932.707;;;;
2020/10/06 04:43:51;;;;;;;3.1;0.4;;;;;;;10.38;86.34277;932.6824;;;;
2020/10/06 04:46:17;;;;;;;1.8;0.4;;;;;;;10.4;86.41504;932.684;;;;
2020/10/06 04:48:44;;;;;;;0.7;0.6;;;;;;;10.39;86.27441;932.5941;;;;
2020/10/06 04:51:09;;;;;;;0.4;0.4;;;;;;;10.38;86.10352;932.5813;;;;
2020/10/06 04:53:38;;;;;;;2.1;1;;;;;;;10.37;85.87305;932.5742;;;;
2020/10/06 04:56:05;;;;;;;2.2;1.4;;;;;;;10.32;86.0127;932.5932;;;;
2020/10/06 04:58:30;;;;;;;1.8;1;;;;;;;10.32;85.97852;932.668;;;;
2020/10/06 05:01:00;;;;;;;1.8;1.1;;;;;;;10.3;85.97461;932.7484;;;;
2020/10/06 05:03:25;;;;;;;3.9;1.1;;;;;;;10.3;85.65332;932.6919;;;;
2020/10/06 05:05:52;;;;;;;1.7;1.1;;;;;;;10.23;85.17188;932.7872;;;;
2020/10/06 05:08:18;;;;;;;2.2;1;;;;;;;10.22;85.35449;932.9138;;;;
2020/10/06 05:10:46;;;;;;;1.9;1.2;;;;;;;10.16;86.35742;933.0236;;;;
2020/10/06 05:13:11;;;;;;;1.3;0.9;;;;;;;10.08;86.7627;933.0258;;;;
2020/10/06 05:15:36;;;;;;;1.1;0.8;;;;;;;10;86.83789;933.0984;;;;
2020/10/06 05:18:01;;;;;;;1.1;0.6;;;;;;;9.83;87.2041;933.0541;;;;
2020/10/06 05:20:26;;;;;;;1.3;0.7;;;;;;;9.66;88.11328;933.1255;;;;
2020/10/06 05:22:51;;;;;;;1.3;0.9;;;;;;;9.45;89.30078;933.1584;;;;
2020/10/06 05:25:16;;;;;;;0.8;0.5;;;;;;;9.54;88.875;933.127;;;;
2020/10/06 05:27:42;;;;;;;0.7;0.5;;;;;;;9.62;88.37695;933.1166;;;;
2020/10/06 05:30:08;;;;;;;0.5;0.4;;;;;;;9.62;87.58203;933.146;;;;
2020/10/06 05:32:34;;;;;;;1.5;0.9;;;;;;;9.6;87.05371;933.1616;;;;
2020/10/06 05:35:27;;;;;;;2.9;1.2;;;;;;;9.59;87.25684;933.1591;;;;
2020/10/06 05:38:00;;;;;;;2.6;0.8;;;;;;;9.51;87.72852;933.1356;;;;
2020/10/06 05:40:34;;;;;;;0.9;0.8;;;;;;;9.55;87.50098;933.1589;;;;
2020/10/06 05:43:07;;;;;;;3.7;0.9;;;;;;;9.57;87.50195;933.1138;;;;
2020/10/06 05:45:32;;;;;;;2.5;1.2;;;;;;;9.41;87.80176;933.1555;;;;
2020/10/06 05:47:57;;;;;;;3.5;2.3;;;;;;;9.37;87.62305;933.1601;;;;
2020/10/06 05:50:23;;;;;;;3.4;1.7;;;;;;;9.26;87.79297;933.1332;;;;
2020/10/06 05:52:48;;;;;;;5.9;3.2;;;;;;;9.35;87.90234;933.2131;;;;
2020/10/06 05:55:14;;;;;;;5.2;1.9;;;;;;;9.34;88.48145;933.1948;;;;
2020/10/06 05:57:39;;;;;;;7.1;2.7;;;;;;;9.14;89.57715;933.1425;;;;
2020/10/06 06:00:04;;;;;;;3.1;1.7;;;;;;;9.29;89.32422;933.0849;;;;
2020/10/06 06:02:32;;;;;;;1.7;1.2;;;;;;;9.46;88.59668;933.0201;;;;
2020/10/06 06:04:57;;;;;;;3.9;1.4;;;;;;;9.64;88.18945;932.9998;;;;
2020/10/06 06:07:24;;;;;;;4.1;1.2;;;;;;;9.82;87.70215;933.0095;;;;
2020/10/06 06:09:49;;;;;;;1.3;1;;;;;;;9.88;86.98535;933.0153;;;;
2020/10/06 06:12:14;;;;;;;2.3;1;;;;;;;9.96;87.14746;932.9742;;;;
2020/10/06 06:14:39;;;;;;;1.4;0.7;;;;;;;10.04;86.69629;932.9309;;;;
2020/10/06 06:17:07;;;;;;;1.4;0.6;;;;;;;10.12;86.25879;932.9543;;;;
2020/10/06 06:19:32;;;;;;;1.3;0.7;;;;;;;10.11;86.63086;932.9208;;;;
2020/10/06 06:21:57;;;;;;;1.5;0.8;;;;;;;10.22;86.42676;932.9328;;;;
2020/10/06 06:24:23;;;;;;;1.5;0.7;;;;;;;10.33;85.85352;932.9991;;;;
2020/10/06 06:26:49;;;;;;;1;0.8;;;;;;;10.42;85.66602;932.9819;;;;
2020/10/06 06:29:14;;;;;;;0.7;0.7;;;;;;;10.61;85.41797;932.9728;;;;
2020/10/06 06:31:39;;;;;;;1.2;0.6;;;;;;;10.65;85.62109;932.8909;;;;
2020/10/06 06:35:02;;;;;;;1.2;0.8;;;;;;;10.86;85.15918;932.8641;;;;
2020/10/06 06:37:27;;;;;;;1.8;1;;;;;;;11.07;85.33691;932.9437;;;;
2020/10/06 06:39:52;;;;;;;0.8;0.6;;;;;;;;;;;;;
2020/10/06 06:42:17;;;;;;;1.1;0.8;;;;;;;;;;;;;
2020/10/06 06:44:42;;;;;;;1;0.7;;;;;;;;;;;;;
2020/10/06 06:47:08;;;;;;;0.9;0.7;;;;;;;;;;;;;
2020/10/06 06:49:33;;;;;;;0.6;0.5;;;;;;;;;;;;;
2020/10/06 06:52:00;;;;;;;1.1;0.6;;;;;;;;;;;;;
2020/10/06 06:54:24;;;;;;;1.4;0.7;;;;;;;;;;;;;
2020/10/06 06:56:50;;;;;;;1.2;0.4;;;;;;;;;;;;;
2020/10/06 06:59:16;;;;;;;2.1;0.7;;;;;;;;;;;;;
2020/10/06 07:01:41;;;;;;;1.5;0.7;;;;;;;;;;;;;
2020/10/06 07:04:07;;;;;;;7.5;0.6;;;;;;;;;;;;;
2020/10/06 07:06:32;;;;;;;3.4;0.7;;;;;;;;;;;;;
2020/10/06 07:08:57;;;;;;;0.9;0.4;;;;;;;;;;;;;
2020/10/06 07:11:22;;;;;;;1.3;0.6;;;;;;;;;;;;;
2020/10/06 07:13:47;;;;;;;1.4;0.7;;;;;;;;;;;;;
2020/10/06 07:16:13;;;;;;;0.9;0.6;;;;;;;;;;;;;
2020/10/06 07:18:38;;;;;;;1.7;0.6;;;;;;;;;;;;;
2020/10/06 07:21:03;;;;;;;0.2;0.2;;;;;;;;;;;;;
2020/10/06 07:23:28;;;;;;;0.7;0.4;;;;;;;;;;;;;
2020/10/06 07:25:54;;;;;;;1.8;0.8;;;;;;;;;;;;;
2020/10/06 07:28:19;;;;;;;0.4;0.4;;;;;;;;;;;;;
2020/10/06 07:30:46;;;;;;;0.5;0.5;;;;;;;;;;;;;
2020/10/06 07:33:11;;;;;;;2.1;0.4;;;;;;;;;;;;;
2020/10/06 07:35:36;;;;;;;0.6;0.3;;;;;;;;;;;;;
2020/10/06 07:38:02;;;;;;;0.3;0.3;;;;;;;;;;;;;
2020/10/06 07:40:34;;;;;;;0.7;0.2;;;;;;;;;;;;;
2020/10/06 07:42:53;;;;;;;0.5;0.3;;;;;;;;;;;;;
2020/10/06 07:45:21;;;;;;;0.3;0.2;;;;;;;;;;;;;
2020/10/06 07:47:46;;;;;;;0.4;0.3;;;;;;;;;;;;;
2020/10/06 07:50:12;;;;;;;0.7;0.3;;;;;;;;;;;;;
2020/10/06 07:52:40;;;;;;;1;0.4;;;;;;;;;;;;;
2020/10/06 07:55:02;;;;;;;0.2;0.2;;;;;;;;;;;;;
2020/10/06 07:57:27;;;;;;;1.6;0.7;;;;;;;;;;;;;
2020/10/06 07:59:52;;;;;;;0.4;0.2;;;;;;;;;;;;;
2020/10/06 08:02:17;;;;;;;0.5;0.2;;;;;;;;;;;;;
2020/10/06 08:04:43;;;;;;;1.9;0.3;;;;;;;;;;;;;
2020/10/06 08:07:08;;;;;;;0.2;0.2;;;;;;;;;;;;;
2020/10/06 08:09:33;;;;;;;0.6;0.2;;;;;;;;;;;;;
2020/10/06 08:11:59;;;;;;;0.4;0.4;;;;;;;;;;;;;
2020/10/06 08:14:24;;;;;;;0.9;0.4;;;;;;;;;;;;;
2020/10/06 08:16:49;;;;;;;0.9;0.5;;;;;;;;;;;;;
2020/10/06 08:19:14;;;;;;;0.8;0.6;;;;;;;;;;;;;
2020/10/06 08:21:39;;;;;;;8.6;0.9;;;;;;;;;;;;;
2020/10/06 08:24:05;;;;;;;1.7;0.7;;;;;;;;;;;;;
2020/10/06 08:26:30;;;;;;;1.3;0.8;;;;;;;;;;;;;
2020/10/06 08:28:55;;;;;;;1.7;0.6;;;;;;;;;;;;;
2020/10/06 08:31:20;;;;;;;0.9;0.2;;;;;;;;;;;;;
2020/10/06 08:33:45;;;;;;;0.4;0.4;;;;;;;;;;;;;
2020/10/06 08:36:10;;;;;;;0.8;0.4;;;;;;;;;;;;;
2020/10/06 08:38:36;;;;;;;0.2;0.2;;;;;;;;;;;;;
2020/10/06 08:41:01;;;;;;;0.3;0.3;;;;;;;;;;;;;
2020/10/06 08:43:26;;;;;;;0.4;0.2;;;;;;;;;;;;;
2020/10/06 08:45:51;;;;;;;0.2;0.2;;;;;;;;;;;;;
2020/10/06 08:48:16;;;;;;;1.3;0.5;;;;;;;;;;;;;
2020/10/06 08:50:41;;;;;;;1.5;0.2;;;;;;;;;;;;;
2020/10/06 08:53:08;;;;;;;1.2;0.3;;;;;;;;;;;;;
2020/10/06 08:55:33;;;;;;;0.2;0.2;;;;;;;;;;;;;
2020/10/06 08:57:58;;;;;;;1.7;0.3;;;;;;;;;;;;;
2020/10/06 09:00:23;;;;;;;1.2;0.3;;;;;;;;;;;;;
2020/10/06 09:02:50;;;;;;;1.9;0.3;;;;;;;;;;;;;
2020/10/06 09:05:15;;;;;;;0.4;0.4;;;;;;;;;;;;;
2020/10/06 09:07:41;;;;;;;1;0.4;;;;;;;;;;;;;
2020/10/06 09:10:06;;;;;;;1;0.6;;;;;;;;;;;;;
2020/10/06 09:12:35;;;;;;;0.7;0.3;;;;;;;;;;;;;
2020/10/06 09:15:01;;;;;;;2.4;0.6;;;;;;;;;;;;;
2020/10/06 09:17:25;;;;;;;1.7;0.5;;;;;;;;;;;;;
2020/10/06 09:19:50;;;;;;;0.4;0.3;;;;;;;;;;;;;
2020/10/06 09:22:16;;;;;;;0.6;0.3;;;;;;;;;;;;;
2020/10/06 09:24:41;;;;;;;2.2;0.7;;;;;;;;;;;;;
2020/10/06 09:27:07;;;;;;;0.8;0.6;;;;;;;;;;;;;
2020/10/06 09:29:33;;;;;;;0.4;0.4;;;;;;;;;;;;;
2020/10/06 09:31:58;;;;;;;0.5;0.4;;;;;;;;;;;;;
2020/10/06 09:34:23;;;;;;;5;0.4;;;;;;;;;;;;;
2020/10/06 09:36:48;;;;;;;2.1;0.4;;;;;;;;;;;;;
2020/10/06 09:39:14;;;;;;;0.3;0.2;;;;;;;;;;;;;
2020/10/06 09:41:39;;;;;;;0.7;0.4;;;;;;;;;;;;;
2020/10/06 09:44:04;;;;;;;0.2;0.2;;;;;;;;;;;;;
2020/10/06 09:46:29;;;;;;;0.3;0.2;;;;;;;;;;;;;
2020/10/06 09:48:55;;;;;;;0.8;0.5;;;;;;;;;;;;;
2020/10/06 09:51:20;;;;;;;0.6;0.5;;;;;;;;;;;;;
2020/10/06 09:53:47;;;;;;;0.5;0.1;;;;;;;;;;;;;
2020/10/06 09:56:11;;;;;;;0.7;0.5;;;;;;;;;;;;;
2020/10/06 09:58:38;;;;;;;2.2;0.3;;;;;;;;;;;;;
2020/10/06 10:01:03;;;;;;;0.4;0.3;;;;;;;;;;;;;
2020/10/06 10:03:28;;;;;;;0.4;0.3;;;;;;;;;;;;;
2020/10/06 10:05:53;;;;;;;1.8;0.4;;;;;;;;;;;;;
2020/10/06 10:08:18;;;;;;;0.8;0.2;;;;;;;;;;;;;
2020/10/06 10:10:43;;;;;;;0.4;0.2;;;;;;;;;;;;;
2020/10/06 10:13:09;;;;;;;7.8;0.4;;;;;;;;;;;;;
2020/10/06 10:15:34;;;;;;;0.1;0.1;;;;;;;;;;;;;
2020/10/06 10:17:59;;;;;;;0.3;0.3;;;;;;;;;;;;;
2020/10/06 10:20:25;;;;;;;1.3;0.2;;;;;;;;;;;;;
2020/10/06 10:22:50;;;;;;;0.4;0.3;;;;;;;;;;;;;
2020/10/06 10:25:17;;;;;;;0.6;0.2;;;;;;;;;;;;;
2020/10/06 10:27:41;;;;;;;0.5;0.2;;;;;;;;;;;;;
2020/10/06 10:30:12;;;;;;;3.2;0.3;;;;;;;;;;;;;
2020/10/06 10:32:38;;;;;;;0.2;0.1;;;;;;;;;;;;;
2020/10/06 10:35:03;;;;;;;0.5;0.2;;;;;;;;;;;;;
2020/10/06 10:37:32;;;;;;;0.3;0.2;;;;;;;;;;;;;
2020/10/06 10:39:57;;;;;;;0.2;0.2;;;;;;;;;;;;;
2020/10/06 10:42:22;;;;;;;0.3;0.2;;;;;;;;;;;;;
2020/10/06 10:44:47;;;;;;;0.1;0.1;;;;;;;;;;;;;
2020/10/06 10:47:13;;;;;;;0.3;0.3;;;;;;;;;;;;;
2020/10/06 10:49:39;;;;;;;0.1;0.1;;;;;;;;;;;;;
2020/10/06 10:52:04;;;;;;;0.2;0.2;;;;;;;;;;;;;
2020/10/06 10:54:29;;;;;;;0.2;0.2;;;;;;;;;;;;;
2020/10/06 10:56:55;;;;;;;0.6;0.4;;;;;;;;;;;;;
2020/10/06 10:59:20;;;;;;;0.2;0.2;;;;;;;;;;;;;
2020/10/06 11:01:45;;;;;;;0.7;0.3;;;;;;;;;;;;;
2020/10/06 11:04:11;;;;;;;0.4;0.3;;;;;;;;;;;;;
2020/10/06 11:06:36;;;;;;;0.2;0.2;;;;;;;;;;;;;
2020/10/06 11:09:02;;;;;;;0.4;0.4;;;;;;;;;;;;;
2020/10/06 11:11:27;;;;;;;8.9;0.5;;;;;;;;;;;;;
2020/10/06 11:13:54;;;;;;;0.2;0.2;;;;;;;;;;;;;
2020/10/06 11:16:19;;;;;;;0.3;0.2;;;;;;;;;;;;;
2020/10/06 11:18:45;;;;;;;0.1;0.1;;;;;;;;;;;;;
2020/10/06 11:21:10;;;;;;;0;0;;;;;;;;;;;;;
2020/10/06 11:23:36;;;;;;;0.5;0.2;;;;;;;;;;;;;
2020/10/06 11:26:01;;;;;;;0.4;0.2;;;;;;;;;;;;;
2020/10/06 11:28:27;;;;;;;0.9;0.3;;;;;;;;;;;;;
2020/10/06 11:30:52;;;;;;;0.3;0.2;;;;;;;;;;;;;
2020/10/06 11:33:18;;;;;;;0.8;0.3;;;;;;;;;;;;;
2020/10/06 11:35:44;;;;;;;0.2;0.2;;;;;;;;;;;;;
2020/10/06 11:38:09;;;;;;;0.7;0.2;;;;;;;;;;;;;
2020/10/06 11:40:34;;;;;;;0.2;0.2;;;;;;;;;;;;;
2020/10/06 11:42:59;;;;;;;0.3;0.2;;;;;;;;;;;;;
2020/10/06 11:45:25;;;;;;;0.2;0.1;;;;;;;;;;;;;
2020/10/06 11:47:50;;;;;;;0.5;0.3;;;;;;;;;;;;;
2020/10/06 11:50:16;;;;;;;0.1;0.1;;;;;;;;;;;;;
2020/10/06 11:52:41;;;;;;;7.4;0.5;;;;;;;;;;;;;
2020/10/06 11:55:09;;;;;;;0.1;0.1;;;;;;;;;;;;;
2020/10/06 11:57:34;;;;;;;0.1;0.1;;;;;;;;;;;;;
2020/10/06 12:00:00;;;;;;;0.3;0.2;;;;;;;;;;;;;
2020/10/06 12:02:25;;;;;;;1.6;0.4;;;;;;;;;;;;;
2020/10/06 12:04:50;;;;;;;0.3;0.3;;;;;;;;;;;;;
2020/10/06 12:07:15;;;;;;;0.3;0.3;;;;;;;;;;;;;
2020/10/06 12:09:40;;;;;;;0.2;0.2;;;;;;;;;;;;;
2020/10/06 12:12:05;;;;;;;0.9;0.4;;;;;;;;;;;;;
2020/10/06 12:14:30;;;;;;;0.4;0.4;;;;;;;;;;;;;
2020/10/06 12:16:55;;;;;;;0.1;0.1;;;;;;;;;;;;;
2020/10/06 12:19:21;;;;;;;0.1;0.1;;;;;;;;;;;;;
2020/10/06 12:21:47;;;;;;;0.6;0.4;;;;;;;;;;;;;
2020/10/06 12:24:12;;;;;;;4.8;0.3;;;;;;;;;;;;;
2020/10/06 12:26:38;;;;;;;5;0.2;;;;;;;;;;;;;
2020/10/06 12:29:03;;;;;;;0.1;0.1;;;;;;;;;;;;;
2020/10/06 12:31:28;;;;;;;0.4;0.3;;;;;;;;;;;;;
2020/10/06 12:33:54;;;;;;;0.3;0.2;;;;;;;;;;;;;
2020/10/06 12:36:19;;;;;;;2.1;0.3;;;;;;;;;;;;;
2020/10/06 12:38:45;;;;;;;0.4;0.2;;;;;;;;;;;;;
2020/10/06 12:41:10;;;;;;;0.4;0.2;;;;;;;;;;;;;
2020/10/06 12:43:36;;;;;;;0.5;0.4;;;;;;;;;;;;;
2020/10/06 12:46:01;;;;;;;0.4;0.3;;;;;;;;;;;;;
2020/10/06 12:48:29;;;;;;;0.6;0.3;;;;;;;;;;;;;
2020/10/06 12:50:54;;;;;;;0.2;0.2;;;;;;;;;;;;;
2020/10/06 12:53:22;;;;;;;0.2;0.2;;;;;;;;;;;;;
2020/10/06 12:55:48;;;;;;;0.4;0.1;;;;;;;;;;;;;
2020/10/06 12:58:12;;;;;;;0.4;0.3;;;;;;;;;;;;;
2020/10/06 13:00:37;;;;;;;0.2;0.1;;;;;;;;;;;;;
2020/10/06 13:03:02;;;;;;;0.2;0.1;;;;;;;;;;;;;
2020/10/06 13:05:28;;;;;;;0.1;0.1;;;;;;;;;;;;;
2020/10/06 13:07:54;;;;;;;1.2;0.3;;;;;;;;;;;;;
2020/10/06 13:10:19;;;;;;;0.3;0.1;;;;;;;;;;;;;
2020/10/06 13:12:46;;;;;;;0.3;0.3;;;;;;;;;;;;;
2020/10/06 13:15:11;;;;;;;0.4;0.2;;;;;;;;;;;;;
2020/10/06 13:17:38;;;;;;;0.8;0.2;;;;;;;;;;;;;
2020/10/06 13:20:03;;;;;;;0.3;0.1;;;;;;;;;;;;;
2020/10/06 13:22:28;;;;;;;0.2;0.2;;;;;;;;;;;;;
2020/10/06 13:24:53;;;;;;;0.6;0.3;;;;;;;;;;;;;
2020/10/06 13:27:19;;;;;;;0.3;0.3;;;;;;;;;;;;;
2020/10/06 13:29:44;;;;;;;0.8;0.4;;;;;;;;;;;;;
2020/10/06 13:32:11;;;;;;;1.4;0.2;;;;;;;;;;;;;
2020/10/06 13:34:36;;;;;;;2.7;0.7;;;;;;;;;;;;;
2020/10/06 13:37:02;;;;;;;8;0.4;;;;;;;;;;;;;
2020/10/06 13:39:27;;;;;;;0.2;0.1;;;;;;;;;;;;;
2020/10/06 13:41:54;;;;;;;0.2;0.2;;;;;;;;;;;;;
2020/10/06 13:44:18;;;;;;;0.2;0.2;;;;;;;;;;;;;
2020/10/06 13:46:45;;;;;;;0.1;0.1;;;;;;;;;;;;;
2020/10/06 13:49:10;;;;;;;0.2;0.2;;;;;;;;;;;;;
2020/10/06 13:51:36;;;;;;;1.3;0.2;;;;;;;;;;;;;
2020/10/06 13:54:01;;;;;;;0.7;0.5;;;;;;;;;;;;;
2020/10/06 13:56:28;;;;;;;2.2;0.4;;;;;;;;;;;;;
2020/10/06 13:58:53;;;;;;;0.3;0.2;;;;;;;;;;;;;
2020/10/06 14:01:19;;;;;;;1.2;0.4;;;;;;;;;;;;;
2020/10/06 14:03:46;;;;;;;0.1;0.1;;;;;;;;;;;;;
2020/10/06 14:06:10;;;;;;;0.5;0.3;;;;;;;;;;;;;
2020/10/06 14:08:35;;;;;;;0.5;0.1;;;;;;;;;;;;;
2020/10/06 14:11:02;;;;;;;0.3;0.2;;;;;;;;;;;;;
2020/10/06 14:13:27;;;;;;;0.1;0.1;;;;;;;;;;;;;
2020/10/06 14:15:53;;;;;;;0.1;0.1;;;;;;;;;;;;;
2020/10/06 14:18:19;;;;;;;0.2;0.2;;;;;;;;;;;;;
2020/10/06 14:20:47;;;;;;;0.3;0.2;;;;;;;;;;;;;
2020/10/06 14:23:14;;;;;;;0.8;0.5;;;;;;;;;;;;;
2020/10/06 14:25:39;;;;;;;2.1;0.3;;;;;;;;;;;;;
2020/10/06 14:28:04;;;;;;;0.9;0.3;;;;;;;;;;;;;
2020/10/06 14:30:33;;;;;;;0.4;0.3;;;;;;;;;;;;;
2020/10/06 14:32:58;;;;;;;6.3;1;;;;;;;;;;;;;
2020/10/06 14:35:24;;;;;;;0.8;0.3;;;;;;;;;;;;;
2020/10/06 14:37:49;;;;;;;0.1;0.1;;;;;;;;;;;;;
2020/10/06 14:40:15;;;;;;;0.5;0.4;;;;;;;;;;;;;
2020/10/06 14:42:39;;;;;;;0.3;0.2;;;;;;;;;;;;;
2020/10/06 14:45:05;;;;;;;1.4;0.2;;;;;;;;;;;;;
2020/10/06 14:47:30;;;;;;;0.4;0.3;;;;;;;;;;;;;
2020/10/06 14:49:55;;;;;;;0.4;0.3;;;;;;;;;;;;;
2020/10/06 14:52:20;;;;;;;0.3;0.2;;;;;;;;;;;;;
2020/10/06 14:54:47;;;;;;;0.2;0.2;;;;;;;;;;;;;
2020/10/06 14:57:12;;;;;;;1.1;0.7;;;;;;;;;;;;;
2020/10/06 14:59:38;;;;;;;0.1;0.1;;;;;;;;;;;;;
2020/10/06 15:02:03;;;;;;;0.7;0.3;;;;;;;;;;;;;
2020/10/06 15:04:29;;;;;;;2;0.4;;;;;;;;;;;;;
2020/10/06 15:06:54;;;;;;;0.4;0.3;;;;;;;;;;;;;
2020/10/06 15:09:21;;;;;;;0.5;0.4;;;;;;;;;;;;;
2020/10/06 15:11:46;;;;;;;3.1;0.4;;;;;;;;;;;;;
2020/10/06 15:14:12;;;;;;;0.7;0.4;;;;;;;;;;;;;
2020/10/06 15:16:37;;;;;;;0.7;0.6;;;;;;;;;;;;;
2020/10/06 15:19:03;;;;;;;1;0.4;;;;;;;;;;;;;
2020/10/06 15:21:29;;;;;;;0.5;0.5;;;;;;;;;;;;;
2020/10/06 15:23:54;;;;;;;1.3;0.5;;;;;;;;;;;;;
2020/10/06 15:26:20;;;;;;;1.4;0.5;;;;;;;;;;;;;
2020/10/06 15:28:45;;;;;;;1;0.5;;;;;;;;;;;;;
2020/10/06 15:31:12;;;;;;;2.5;1;;;;;;;;;;;;;
2020/10/06 15:33:37;;;;;;;1;0.4;;;;;;;;;;;;;
2020/10/06 15:36:02;;;;;;;1.3;0.5;;;;;;;;;;;;;
2020/10/06 15:38:28;;;;;;;1.2;0.8;;;;;;;;;;;;;
2020/10/06 15:40:53;;;;;;;1.4;0.9;;;;;;;;;;;;;
2020/10/06 15:43:19;;;;;;;2.2;0.7;;;;;;;;;;;;;
2020/10/06 15:45:44;;;;;;;0.8;0.4;;;;;;;;;;;;;
2020/10/06 15:48:10;;;;;;;3.4;0.9;;;;;;;;;;;;;
2020/10/06 15:50:34;;;;;;;1.1;0.5;;;;;;;;;;;;;
2020/10/06 15:52:59;;;;;;;2.7;1.1;;;;;;;;;;;;;
2020/10/06 15:55:25;;;;;;;3.3;0.8;;;;;;;;;;;;;
2020/10/06 15:57:50;;;;;;;3.2;1.1;;;;;;;;;;;;;
2020/10/06 16:00:26;;;;;;;2.7;1.7;;;;;;;;;;;;;
2020/10/06 16:02:51;;;;;;;2.8;1.4;;;;;;;;;;;;;
2020/10/06 16:05:16;;;;;;;2.9;1.1;;;;;;;;;;;;;
2020/10/06 16:07:42;;;;;;;1.6;1.1;;;;;;;;;;;;;
2020/10/06 16:10:07;;;;;;;3.4;1.2;;;;;;;;;;;;;
2020/10/06 16:12:36;;;;;;;2.8;1.1;;;;;;;;;;;;;
2020/10/06 16:15:01;;;;;;;2.3;1.4;;;;;;;;;;;;;
2020/10/06 16:17:27;;;;;;;0.4;0.4;;;;;;;;;;;;;
2020/10/06 16:19:52;;;;;;;1;0.7;;;;;;;;;;;;;
2020/10/06 16:22:17;;;;;;;1.4;0.7;;;;;;;;;;;;;
2020/10/06 16:24:42;;;;;;;3.2;1.2;;;;;;;;;;;;;
2020/10/06 16:27:08;;;;;;;2.2;1.3;;;;;;;;;;;;;
2020/10/06 16:29:33;;;;;;;4.9;1.1;;;;;;;;;;;;;
2020/10/06 16:31:59;;;;;;;1.2;0.5;;;;;;;;;;;;;
2020/10/06 16:34:24;;;;;;;0.3;0.2;;;;;;;;;;;;;
2020/10/06 16:36:50;;;;;;;3.5;0.4;;;;;;;;;;;;;
2020/10/06 16:39:15;;;;;;;0.4;0.4;;;;;;;;;;;;;
2020/10/06 16:41:40;;;;;;;2.3;0.8;;;;;;;;;;;;;
2020/10/06 16:44:05;;;;;;;0.8;0.5;;;;;;;;;;;;;
2020/10/06 16:46:31;;;;;;;2.9;0.9;;;;;;;;;;;;;
2020/10/06 16:48:56;;;;;;;0.9;0.6;;;;;;;;;;;;;
2020/10/06 16:51:21;;;;;;;2.3;0.8;;;;;;;;;;;;;
2020/10/06 16:53:47;;;;;;;1.2;0.8;;;;;;;;;;;;;
2020/10/06 16:56:12;;;;;;;0.9;0.7;;;;;;;;;;;;;
2020/10/06 16:58:38;;;;;;;0.8;0.8;;;;;;;;;;;;;
2020/10/06 17:01:03;;;;;;;1.5;0.9;;;;;;;;;;;;;
2020/10/06 17:03:28;;;;;;;0.8;0.7;;;;;;;;;;;;;
2020/10/06 17:05:53;;;;;;;0.5;0.4;;;;;;;;;;;;;
2020/10/06 17:08:19;;;;;;;0.7;0.6;;;;;;;;;;;;;
2020/10/06 17:10:44;;;;;;;1.5;0.9;;;;;;;;;;;;;
2020/10/06 17:13:09;;;;;;;0.9;0.7;;;;;;;;;;;;;
2020/10/06 17:15:41;;;;;;;2.3;1.2;;;;;;;;;;;;;
2020/10/06 17:18:06;;;;;;;1.4;1;;;;;;;;;;;;;
2020/10/06 17:20:31;;;;;;;1;0.9;;;;;;;;;;;;;
2020/10/06 17:22:57;;;;;;;1.7;1.3;;;;;;;;;;;;;
2020/10/06 17:25:22;;;;;;;2.2;1;;;;;;;;;;;;;
2020/10/06 17:27:48;;;;;;;2.6;1.4;;;;;;;;;;;;;
2020/10/06 17:30:13;;;;;;;4.8;1.9;;;;;;;;;;;;;
2020/10/06 17:32:38;;;;;;;2.6;1.3;;;;;;;;;;;;;
2020/10/06 17:35:03;;;;;;;2.5;1.4;;;;;;;;;;;;;
2020/10/06 17:37:29;;;;;;;1.9;1.2;;;;;;;;;;;;;
2020/10/06 17:39:54;;;;;;;3.3;1;;;;;;;;;;;;;
2020/10/06 17:42:20;;;;;;;2.2;1.1;;;;;;;;;;;;;
2020/10/06 17:44:44;;;;;;;1.9;1.1;;;;;;;;;;;;;
2020/10/06 17:47:09;;;;;;;3.4;1.1;;;;;;;;;;;;;
2020/10/06 17:49:35;;;;;;;5.1;1.6;;;;;;;;;;;;;
2020/10/06 17:52:00;;;;;;;2;1.2;;;;;;;;;;;;;
2020/10/06 17:54:24;;;;;;;2.2;1.2;;;;;;;;;;;;;
2020/10/06 17:56:50;;;;;;;3.6;1.1;;;;;;;;;;;;;
2020/10/06 17:59:15;;;;;;;2.9;1.2;;;;;;;;;;;;;
2020/10/06 18:01:44;;;;;;;3.1;1.7;;;;;;;;;;;;;
2020/10/06 18:04:07;;;;;;;2.6;1.3;;;;;;;;;;;;;
2020/10/06 18:06:34;;;;;;;4.2;1.6;;;;;;;;;;;;;
2020/10/06 18:08:59;;;;;;;4;2;;;;;;;;;;;;;
2020/10/06 18:11:25;;;;;;;4.4;2;;;;;;;;;;;;;
2020/10/06 18:13:50;;;;;;;4.6;1.7;;;;;;;;;;;;;
2020/10/06 18:16:16;;;;;;;2;1.2;;;;;;;;;;;;;
2020/10/06 18:18:43;;;;;;;3.2;2;;;;;;;;;;;;;
2020/10/06 18:21:07;;;;;;;4;1.6;;;;;;;;;;;;;
2020/10/06 18:23:32;;;;;;;3.4;2.1;;;;;;;;;;;;;
2020/10/06 18:25:57;;;;;;;2.8;1.7;;;;;;;;;;;;;
2020/10/06 18:28:22;;;;;;;4.4;2.6;;;;;;;;;;;;;
2020/10/06 18:30:48;;;;;;;4.6;2.7;;;;;;;;;;;;;
2020/10/06 18:33:13;;;;;;;5.6;3;;;;;;;;;;;;;
2020/10/06 18:35:38;;;;;;;7.4;4.4;;;;;;;;;;;;;
2020/10/06 18:38:03;;;;;;;10.6;4.2;;;;;;;;;;;;;
2020/10/06 18:40:28;;;;;;;9.4;4.3;;;;;;;;;;;;;
2020/10/06 18:42:54;;;;;;;8.4;4;;;;;;;;;;;;;
2020/10/06 18:45:20;;;;;;;8.3;4.3;;;;;;;;;;;;;
2020/10/06 18:47:46;;;;;;;7.4;3.2;;;;;;;;;;;;;
2020/10/06 18:50:11;;;;;;;6.9;3.5;;;;;;;;;;;;;
2020/10/06 18:52:36;;;;;;;4.5;2.4;;;;;;;;;;;;;
2020/10/06 18:55:02;;;;;;;5.6;2.9;;;;;;;;;;;;;
2020/10/06 18:57:28;;;;;;;12;4.3;;;;;;;;;;;;;
2020/10/06 18:59:53;;;;;;;2.4;1.7;;;;;;;;;;;;;
2020/10/06 19:02:18;;;;;;;3.2;1.7;;;;;;;;;;;;;
2020/10/06 19:04:43;;;;;;;3;1.7;;;;;;;;;;;;;
2020/10/06 19:07:08;;;;;;;10.2;2;;;;;;;;;;;;;
2020/10/06 19:09:34;;;;;;;3.2;2;;;;;;;;;;;;;
2020/10/06 19:11:59;;;;;;;3.8;1.9;;;;;;;;;;;;;
2020/10/06 19:14:24;;;;;;;5.6;2.6;;;;;;;;;;;;;
2020/10/06 19:16:49;;;;;;;3.6;1.8;;;;;;;;;;;;;
2020/10/06 19:19:15;;;;;;;3.2;1.6;;;;;;;;;;;;;
2020/10/06 19:21:40;;;;;;;4.3;1.9;;;;;;;;;;;;;
2020/10/06 19:24:06;;;;;;;3.5;1.5;;;;;;;;;;;;;
2020/10/06 19:26:31;;;;;;;2;1.2;;;;;;;;;;;;;